createdAt,value
2017-10-29T00:01:35.379Z,1.13
2017-10-29T00:04:02.811Z,0.70
2017-10-29T00:06:30.244Z,1.53
2017-10-29T00:08:58.448Z,0.70
2017-10-29T00:11:25.895Z,1.10
2017-10-29T00:14:06.456Z,0.70
2017-10-29T00:16:34.655Z,0.80
2017-10-29T00:19:02.093Z,0.90
2017-10-29T00:21:29.915Z,0.90
2017-10-29T00:23:57.335Z,0.80
2017-10-29T00:26:25.183Z,1.60
2017-10-29T00:28:52.612Z,1.23
2017-10-29T00:31:20.060Z,2.67
2017-10-29T00:33:47.498Z,0.80
2017-10-29T00:36:16.414Z,1.00
2017-10-29T00:38:43.849Z,1.00
2017-10-29T00:41:11.290Z,3.07
2017-10-29T00:43:38.719Z,0.93
2017-10-29T00:46:07.050Z,3.17
2017-10-29T00:48:34.474Z,2.07
2017-10-29T00:51:04.407Z,1.53
2017-10-29T00:53:32.374Z,1.20
2017-10-29T00:55:59.811Z,0.80
2017-10-29T00:58:27.229Z,1.93
2017-10-29T01:00:55.854Z,1.27
2017-10-29T01:03:23.283Z,1.10
2017-10-29T01:05:51.124Z,1.80
2017-10-29T01:08:19.110Z,1.90
2017-10-29T01:10:46.529Z,1.23
2017-10-29T01:13:13.962Z,1.77
2017-10-29T01:15:41.400Z,1.03
2017-10-29T01:18:08.831Z,1.50
2017-10-29T01:20:37.046Z,1.23
2017-10-29T01:23:04.470Z,0.90
2017-10-29T01:25:32.824Z,0.93
2017-10-29T01:28:00.238Z,1.10
2017-10-29T01:30:27.673Z,2.10
2017-10-29T01:32:55.101Z,0.80
2017-10-29T01:35:22.541Z,1.00
2017-10-29T01:37:49.970Z,1.20
2017-10-29T01:40:17.418Z,0.90
2017-10-29T01:42:44.850Z,0.90
2017-10-29T01:45:12.289Z,1.07
2017-10-29T01:47:40.263Z,1.30
2017-10-29T01:50:08.686Z,1.07
2017-10-29T01:52:36.122Z,1.90
2017-10-29T01:55:03.546Z,0.80
2017-10-29T01:57:47.653Z,1.17
2017-10-29T02:00:15.083Z,0.90
2017-10-29T02:02:43.079Z,1.60
2017-10-29T02:05:10.510Z,1.10
2017-10-29T02:07:37.950Z,1.00
2017-10-29T02:10:06.147Z,0.90
2017-10-29T02:12:34.079Z,1.40
2017-10-29T02:15:01.506Z,0.80
2017-10-29T02:17:28.944Z,0.87
2017-10-29T02:19:56.679Z,1.33
2017-10-29T02:22:24.116Z,0.70
2017-10-29T02:24:51.538Z,1.60
2017-10-29T02:27:19.134Z,0.60
2017-10-29T02:29:47.749Z,0.77
2017-10-29T02:32:15.179Z,1.27
2017-10-29T02:34:43.378Z,1.67
2017-10-29T02:37:14.019Z,0.73
2017-10-29T02:39:41.455Z,1.10
2017-10-29T02:42:09.659Z,0.90
2017-10-29T02:44:37.087Z,0.93
2017-10-29T02:47:04.523Z,2.77
2017-10-29T02:49:32.727Z,2.33
2017-10-29T02:52:03.015Z,0.80
2017-10-29T02:54:30.450Z,0.80
2017-10-29T02:56:57.901Z,1.03
2017-10-29T02:59:25.328Z,0.90
2017-10-29T03:01:52.778Z,1.10
2017-10-29T03:04:20.203Z,1.17
2017-10-29T03:06:47.642Z,0.90
2017-10-29T03:09:15.074Z,1.47
2017-10-29T03:11:42.507Z,2.77
2017-10-29T03:14:09.935Z,0.93
2017-10-29T03:17:03.575Z,1.20
2017-10-29T03:19:31.020Z,1.17
2017-10-29T03:21:58.867Z,1.10
2017-10-29T03:24:26.289Z,1.07
2017-10-29T03:26:55.048Z,1.50
2017-10-29T03:29:22.474Z,1.63
2017-10-29T03:31:49.918Z,0.93
2017-10-29T03:34:17.351Z,1.27
2017-10-29T03:36:46.919Z,1.23
2017-10-29T03:39:15.334Z,2.00
2017-10-29T03:41:43.539Z,1.20
2017-10-29T03:44:10.983Z,1.30
2017-10-29T03:46:39.179Z,2.97
2017-10-29T03:49:06.616Z,3.03
2017-10-29T03:51:34.051Z,1.23
2017-10-29T03:54:01.488Z,1.57
2017-10-29T03:56:28.918Z,2.77
2017-10-29T03:58:57.770Z,2.03
2017-10-29T04:01:25.972Z,1.83
2017-10-29T04:03:53.960Z,3.53
2017-10-29T04:06:21.392Z,2.30
2017-10-29T04:08:48.826Z,2.33
2017-10-29T04:11:17.019Z,2.60
2017-10-29T04:13:44.709Z,2.70
2017-10-29T04:16:12.140Z,2.47
2017-10-29T04:18:39.574Z,2.33
2017-10-29T04:21:07.782Z,5.13
2017-10-29T04:23:35.210Z,3.77
2017-10-29T04:26:05.958Z,3.10
2017-10-29T04:28:33.398Z,3.97
2017-10-29T04:31:16.962Z,2.90
2017-10-29T04:33:44.399Z,4.77
2017-10-29T04:36:11.830Z,3.63
2017-10-29T04:38:39.799Z,2.50
2017-10-29T04:41:07.222Z,2.80
2017-10-29T04:43:34.678Z,2.93
2017-10-29T04:46:02.122Z,2.63
2017-10-29T04:48:29.543Z,2.83
2017-10-29T04:50:57.747Z,2.40
2017-10-29T04:53:25.944Z,3.53
2017-10-29T04:55:53.389Z,2.47
2017-10-29T04:58:21.230Z,4.30
2017-10-29T05:00:49.522Z,2.40
2017-10-29T05:03:16.950Z,2.33
2017-10-29T05:05:45.169Z,2.17
2017-10-29T05:08:13.090Z,3.47
2017-10-29T05:10:41.296Z,1.97
2017-10-29T05:13:08.723Z,2.10
2017-10-29T05:15:36.929Z,2.43
2017-10-29T05:18:04.359Z,1.93
2017-10-29T05:20:32.562Z,3.37
2017-10-29T05:26:07.203Z,2.40
2017-10-29T05:28:34.636Z,3.90
2017-10-29T05:31:02.830Z,2.30
2017-10-29T05:33:30.813Z,2.17
2017-10-29T05:35:58.250Z,3.63
2017-10-29T05:38:25.679Z,2.40
2017-10-29T05:40:53.559Z,2.93
2017-10-29T05:43:21.763Z,2.07
2017-10-29T05:45:49.203Z,6.03
2017-10-29T05:48:23.978Z,3.57
2017-10-29T05:50:51.521Z,2.53
2017-10-29T05:53:19.155Z,2.60
2017-10-29T05:55:47.183Z,1.90
2017-10-29T05:58:14.615Z,2.00
2017-10-29T06:00:42.063Z,2.13
2017-10-29T06:03:09.909Z,2.47
2017-10-29T06:05:37.334Z,2.43
2017-10-29T06:08:05.543Z,2.90
2017-10-29T06:10:32.972Z,2.00
2017-10-29T06:13:01.187Z,4.50
2017-10-29T06:15:28.619Z,1.40
2017-10-29T06:17:56.054Z,2.33
2017-10-29T06:20:23.474Z,1.57
2017-10-29T06:22:50.930Z,1.30
2017-10-29T06:25:20.924Z,2.70
2017-10-29T06:27:48.359Z,0.83
2017-10-29T06:30:16.559Z,0.97
2017-10-29T06:32:43.994Z,0.83
2017-10-29T06:35:11.980Z,1.13
2017-10-29T06:37:39.416Z,2.40
2017-10-29T06:40:07.617Z,1.27
2017-10-29T06:42:35.054Z,1.10
2017-10-29T06:45:02.489Z,0.77
2017-10-29T06:47:30.343Z,0.80
2017-10-29T06:49:57.774Z,1.50
2017-10-29T06:52:25.642Z,2.97
2017-10-29T06:54:53.327Z,1.50
2017-10-29T06:57:20.746Z,2.80
2017-10-29T06:59:48.179Z,3.27
2017-10-29T07:02:16.762Z,1.40
2017-10-29T07:04:44.193Z,2.60
2017-10-29T07:07:11.626Z,2.73
2017-10-29T07:09:39.062Z,0.87
2017-10-29T07:12:07.514Z,0.77
2017-10-29T07:14:35.695Z,3.10
2017-10-29T07:17:03.127Z,3.70
2017-10-29T07:19:31.336Z,1.63
2017-10-29T07:22:03.060Z,2.90
2017-10-29T07:24:31.269Z,3.53
2017-10-29T07:26:58.713Z,9.77
2017-10-29T07:29:26.144Z,13.97
2017-10-29T07:31:54.348Z,8.80
2017-10-29T07:34:36.878Z,10.13
2017-10-29T07:37:04.310Z,7.97
2017-10-29T07:39:31.733Z,6.07
2017-10-29T07:41:59.489Z,10.43
2017-10-29T07:44:31.262Z,8.37
2017-10-29T07:46:58.703Z,5.60
2017-10-29T07:49:30.147Z,11.07
2017-10-29T07:51:57.573Z,9.00
2017-10-29T07:54:25.003Z,5.80
2017-10-29T07:56:52.464Z,9.20
2017-10-29T07:59:20.834Z,9.07
2017-10-29T08:01:49.032Z,7.20
2017-10-29T08:04:16.458Z,7.93
2017-10-29T08:06:44.670Z,13.43
2017-10-29T08:09:13.523Z,15.17
2017-10-29T08:11:50.686Z,5.40
2017-10-29T08:14:22.047Z,5.77
2017-10-29T08:16:49.482Z,8.83
2017-10-29T08:19:16.912Z,6.17
2017-10-29T08:21:44.352Z,12.33
2017-10-29T08:24:12.214Z,10.77
2017-10-29T08:26:39.648Z,7.43
2017-10-29T08:29:10.306Z,7.03
2017-10-29T08:31:38.039Z,8.43
2017-10-29T08:34:07.185Z,9.80
2017-10-29T08:36:34.603Z,12.63
2017-10-29T08:39:02.819Z,7.33
2017-10-29T08:41:30.243Z,9.77
2017-10-29T08:43:58.450Z,10.53
2017-10-29T08:46:25.883Z,13.10
2017-10-29T08:48:53.319Z,12.30
2017-10-29T08:51:21.533Z,13.23
2017-10-29T08:53:48.967Z,10.83
2017-10-29T08:56:18.251Z,10.50
2017-10-29T08:58:51.491Z,13.17
2017-10-29T09:01:18.926Z,13.83
2017-10-29T09:03:46.367Z,11.53
2017-10-29T09:06:17.151Z,11.27
2017-10-29T09:08:44.589Z,11.13
2017-10-29T09:11:12.018Z,13.20
2017-10-29T09:13:40.230Z,13.17
2017-10-29T09:16:07.671Z,13.80
2017-10-29T09:18:36.023Z,16.10
2017-10-29T09:21:04.210Z,18.73
2017-10-29T09:23:31.653Z,15.07
2017-10-29T09:25:59.859Z,14.00
2017-10-29T09:28:27.728Z,12.27
2017-10-29T09:30:55.706Z,12.40
2017-10-29T09:33:23.815Z,10.23
2017-10-29T09:35:51.246Z,11.17
2017-10-29T09:38:18.694Z,12.93
2017-10-29T09:40:46.127Z,14.43
2017-10-29T09:43:14.973Z,15.77
2017-10-29T09:45:42.410Z,12.43
2017-10-29T09:48:09.852Z,16.53
2017-10-29T09:50:37.732Z,17.73
2017-10-29T09:53:05.166Z,18.30
2017-10-29T09:55:32.598Z,17.73
2017-10-29T09:58:00.810Z,20.57
2017-10-29T10:00:28.267Z,22.57
2017-10-29T10:02:55.703Z,12.13
2017-10-29T10:05:23.132Z,20.73
2017-10-29T10:07:51.343Z,14.70
2017-10-29T10:10:18.781Z,21.83
2017-10-29T10:12:46.222Z,12.47
2017-10-29T10:15:14.423Z,20.93
2017-10-29T10:17:42.417Z,17.37
2017-10-29T10:20:09.850Z,12.13
2017-10-29T10:22:38.143Z,17.30
2017-10-29T10:25:13.028Z,11.70
2017-10-29T10:27:41.345Z,17.43
2017-10-29T10:30:08.764Z,18.13
2017-10-29T10:32:36.973Z,13.13
2017-10-29T10:35:04.397Z,12.30
2017-10-29T10:37:32.608Z,14.17
2017-10-29T10:40:00.037Z,15.03
2017-10-29T10:42:28.242Z,8.67
2017-10-29T10:44:55.674Z,10.33
2017-10-29T10:47:23.119Z,14.00
2017-10-29T10:49:52.599Z,12.60
2017-10-29T10:52:20.021Z,10.83
2017-10-29T10:54:47.463Z,8.10
2017-10-29T10:57:23.275Z,14.40
2017-10-29T10:59:50.715Z,11.80
2017-10-29T11:02:18.150Z,10.83
2017-10-29T11:04:45.600Z,15.13
2017-10-29T11:07:13.442Z,8.47
2017-10-29T11:09:40.892Z,8.90
2017-10-29T11:12:11.128Z,10.40
2017-10-29T11:14:38.907Z,9.50
2017-10-29T11:17:06.423Z,12.93
2017-10-29T11:19:34.634Z,9.50
2017-10-29T11:22:02.465Z,11.83
2017-10-29T11:24:30.687Z,11.73
2017-10-29T11:26:58.114Z,12.53
2017-10-29T11:29:26.037Z,9.70
2017-10-29T11:31:57.897Z,8.43
2017-10-29T11:34:25.362Z,10.23
2017-10-29T11:36:52.888Z,8.63
2017-10-29T11:39:20.326Z,9.40
2017-10-29T11:41:48.531Z,5.60
2017-10-29T11:44:15.987Z,6.63
2017-10-29T11:46:43.428Z,9.43
2017-10-29T11:49:11.531Z,9.23
2017-10-29T11:51:39.221Z,12.70
2017-10-29T11:54:06.643Z,8.80
2017-10-29T11:56:34.082Z,8.50
2017-10-29T11:59:02.089Z,13.95
2017-10-29T12:01:29.526Z,11.05
2017-10-29T12:03:56.980Z,10.95
2017-10-29T12:06:24.406Z,10.13
2017-10-29T12:08:52.096Z,10.02
2017-10-29T12:11:23.291Z,9.13
2017-10-29T12:13:51.502Z,10.50
2017-10-29T12:16:18.935Z,13.60
2017-10-29T12:18:46.378Z,13.63
2017-10-29T12:21:14.575Z,7.80
2017-10-29T12:23:42.003Z,11.13
2017-10-29T12:26:09.443Z,12.13
2017-10-29T12:28:36.879Z,11.40
2017-10-29T12:31:04.384Z,11.40
2017-10-29T12:33:31.847Z,8.80
2017-10-29T12:36:00.066Z,8.97
2017-10-29T12:38:27.515Z,9.17
2017-10-29T12:40:55.160Z,11.70
2017-10-29T12:43:22.596Z,11.77
2017-10-29T12:45:50.931Z,12.17
2017-10-29T12:48:18.895Z,11.07
2017-10-29T12:50:47.111Z,10.87
2017-10-29T12:53:15.378Z,13.27
2017-10-29T12:55:42.815Z,15.07
2017-10-29T12:58:11.163Z,12.20
2017-10-29T13:00:38.655Z,14.77
2017-10-29T13:03:06.905Z,11.57
2017-10-29T13:05:34.338Z,7.60
2017-10-29T13:08:01.768Z,10.40
2017-10-29T13:10:30.399Z,16.37
2017-10-29T13:12:57.841Z,9.73
2017-10-29T13:15:25.294Z,7.50
2017-10-29T13:18:02.827Z,11.63
2017-10-29T13:20:31.458Z,8.97
2017-10-29T13:22:59.660Z,11.43
2017-10-29T13:25:27.090Z,9.73
2017-10-29T13:27:55.374Z,7.43
2017-10-29T13:30:23.506Z,8.33
2017-10-29T13:32:51.700Z,9.60
2017-10-29T13:35:25.221Z,6.40
2017-10-29T13:37:53.221Z,5.73
2017-10-29T13:40:20.671Z,6.60
2017-10-29T13:42:48.106Z,6.43
2017-10-29T13:45:15.539Z,9.37
2017-10-29T13:47:42.983Z,10.97
2017-10-29T13:50:10.410Z,9.93
2017-10-29T13:52:38.240Z,7.63
2017-10-29T13:55:05.731Z,6.83
2017-10-29T13:57:33.163Z,7.20
2017-10-29T14:00:00.597Z,5.87
2017-10-29T14:02:28.807Z,11.50
2017-10-29T14:04:56.249Z,8.33
2017-10-29T14:07:24.485Z,7.90
2017-10-29T14:09:52.511Z,10.07
2017-10-29T14:12:20.487Z,9.87
2017-10-29T14:14:47.925Z,9.63
2017-10-29T14:17:15.352Z,7.07
2017-10-29T14:19:43.550Z,13.47
2017-10-29T14:22:18.763Z,7.23
2017-10-29T14:24:46.190Z,6.47
2017-10-29T14:27:14.032Z,10.93
2017-10-29T14:29:41.466Z,7.70
2017-10-29T14:32:08.903Z,8.20
2017-10-29T14:34:37.119Z,14.57
2017-10-29T14:37:04.568Z,10.67
2017-10-29T14:39:32.651Z,12.33
2017-10-29T14:42:00.063Z,6.30
2017-10-29T14:44:34.846Z,6.90
2017-10-29T14:47:02.281Z,10.80
2017-10-29T14:49:29.719Z,11.07
2017-10-29T14:51:58.353Z,11.30
2017-10-29T14:54:26.374Z,12.93
2017-10-29T14:57:01.254Z,9.93
2017-10-29T14:59:28.697Z,9.10
2017-10-29T15:01:56.131Z,11.70
2017-10-29T15:04:23.794Z,10.00
2017-10-29T15:06:51.242Z,8.87
2017-10-29T15:09:19.851Z,8.07
2017-10-29T15:11:47.283Z,10.83
2017-10-29T15:14:16.474Z,8.40
2017-10-29T15:16:44.682Z,6.90
2017-10-29T15:19:12.135Z,12.60
2017-10-29T15:21:40.079Z,10.00
2017-10-29T15:24:08.304Z,17.47
2017-10-29T15:26:35.726Z,9.57
2017-10-29T15:29:03.165Z,11.27
2017-10-29T15:31:31.370Z,8.23
2017-10-29T15:33:58.798Z,7.33
2017-10-29T15:36:28.431Z,10.37
2017-10-29T15:38:55.853Z,16.80
2017-10-29T15:41:24.756Z,13.60
2017-10-29T15:43:52.956Z,10.33
2017-10-29T15:46:20.392Z,13.77
2017-10-29T15:48:49.115Z,10.50
2017-10-29T15:51:16.807Z,8.60
2017-10-29T15:53:44.220Z,7.33
2017-10-29T15:56:12.378Z,7.17
2017-10-29T15:58:41.130Z,11.17
2017-10-29T16:01:08.706Z,5.60
2017-10-29T16:03:36.903Z,7.23
2017-10-29T16:06:06.280Z,10.40
2017-10-29T16:08:34.470Z,8.17
2017-10-29T16:11:02.957Z,7.63
2017-10-29T16:13:31.139Z,15.07
2017-10-29T16:15:59.004Z,11.07
2017-10-29T16:18:26.431Z,7.73
2017-10-29T16:20:54.179Z,12.30
2017-10-29T16:23:21.598Z,9.07
2017-10-29T16:25:49.556Z,11.17
2017-10-29T16:28:17.265Z,11.43
2017-10-29T16:30:44.687Z,12.50
2017-10-29T16:33:24.050Z,11.10
2017-10-29T16:35:51.479Z,13.50
2017-10-29T16:38:19.299Z,12.27
2017-10-29T16:40:47.131Z,16.73
2017-10-29T16:43:14.563Z,15.93
2017-10-29T16:45:41.992Z,11.47
2017-10-29T16:48:13.534Z,9.70
2017-10-29T16:50:40.958Z,9.90
2017-10-29T16:53:08.399Z,10.50
2017-10-29T16:55:35.847Z,8.70
2017-10-29T16:58:04.074Z,8.53
2017-10-29T17:00:31.507Z,15.47
2017-10-29T17:02:58.946Z,9.80
2017-10-29T17:05:26.385Z,12.60
2017-10-29T17:07:53.810Z,11.30
2017-10-29T17:10:22.006Z,17.73
2017-10-29T17:12:50.071Z,13.70
2017-10-29T17:15:17.514Z,9.13
2017-10-29T17:17:47.074Z,13.60
2017-10-29T17:20:15.271Z,8.97
2017-10-29T17:22:42.703Z,15.87
2017-10-29T17:25:10.131Z,13.60
2017-10-29T17:27:37.567Z,11.53
2017-10-29T17:30:05.778Z,11.93
2017-10-29T17:32:33.233Z,13.63
2017-10-29T17:35:00.678Z,10.43
2017-10-29T17:37:28.106Z,12.33
2017-10-29T17:39:56.306Z,11.17
2017-10-29T17:42:23.735Z,11.77
2017-10-29T17:44:51.939Z,12.00
2017-10-29T17:47:19.366Z,11.57
2017-10-29T17:49:47.571Z,17.30
2017-10-29T17:52:14.998Z,17.97
2017-10-29T17:54:43.203Z,26.13
2017-10-29T17:57:10.626Z,23.27
2017-10-29T17:59:38.063Z,15.47
2017-10-29T18:02:05.508Z,11.00
2017-10-29T18:04:32.944Z,18.73
2017-10-29T18:07:00.366Z,17.77
2017-10-29T18:09:45.996Z,12.27
2017-10-29T18:12:13.407Z,10.20
2017-10-29T18:14:41.608Z,8.67
2017-10-29T18:17:09.036Z,15.53
2017-10-29T18:19:37.236Z,15.73
2017-10-29T18:22:04.658Z,35.93
2017-10-29T18:24:32.098Z,31.70
2017-10-29T18:26:59.527Z,18.77
2017-10-29T18:29:26.954Z,16.80
2017-10-29T18:31:54.834Z,18.37
2017-10-29T18:34:22.272Z,12.87
2017-10-29T18:36:50.466Z,12.00
2017-10-29T18:39:17.890Z,11.07
2017-10-29T18:41:46.498Z,12.40
2017-10-29T18:44:13.932Z,10.33
2017-10-29T18:49:35.658Z,15.80
2017-10-29T18:52:08.235Z,7.47
2017-10-29T18:54:40.827Z,13.10
2017-10-29T18:57:09.870Z,10.73
2017-10-29T18:59:56.521Z,16.40
2017-10-29T19:02:23.938Z,9.37
2017-10-29T19:04:51.389Z,9.53
2017-10-29T19:07:18.819Z,10.87
2017-10-29T19:09:46.258Z,10.17
2017-10-29T19:12:13.676Z,11.70
2017-10-29T19:14:41.114Z,11.30
2017-10-29T19:17:08.549Z,15.13
2017-10-29T19:19:36.534Z,14.70
2017-10-29T19:22:03.974Z,11.33
2017-10-29T19:24:32.165Z,17.27
2017-10-29T19:27:00.267Z,12.67
2017-10-29T19:29:27.682Z,12.47
2017-10-29T19:31:55.112Z,12.87
2017-10-29T19:34:23.325Z,14.80
2017-10-29T19:36:50.752Z,21.53
2017-10-29T19:39:19.504Z,11.00
2017-10-29T19:41:47.752Z,18.93
2017-10-29T19:44:15.188Z,14.50
2017-10-29T19:46:42.623Z,14.00
2017-10-29T19:49:11.244Z,16.50
2017-10-29T19:51:42.657Z,12.33
2017-10-29T19:54:10.851Z,17.07
2017-10-29T19:56:39.443Z,13.90
2017-10-29T19:59:07.319Z,18.60
2017-10-29T20:01:34.754Z,15.83
2017-10-29T20:04:02.179Z,17.10
2017-10-29T20:06:29.611Z,13.47
2017-10-29T20:08:57.661Z,15.03
2017-10-29T20:11:25.332Z,15.90
2017-10-29T20:13:52.764Z,7.20
2017-10-29T20:16:20.742Z,15.40
2017-10-29T20:18:48.174Z,10.83
2017-10-29T20:21:16.367Z,15.30
2017-10-29T20:23:43.791Z,12.60
2017-10-29T20:26:11.230Z,10.30
2017-10-29T20:28:39.030Z,11.23
2017-10-29T20:31:10.582Z,19.50
2017-10-29T20:33:38.783Z,13.00
2017-10-29T20:36:06.215Z,12.57
2017-10-29T20:38:34.415Z,17.50
2017-10-29T20:41:01.856Z,10.90
2017-10-29T20:43:29.279Z,17.10
2017-10-29T20:45:57.678Z,12.43
2017-10-29T20:48:31.751Z,12.47
2017-10-29T20:51:12.824Z,12.53
2017-10-29T20:53:40.239Z,15.77
2017-10-29T20:56:07.671Z,13.73
2017-10-29T20:58:35.102Z,17.27
2017-10-29T21:01:02.542Z,13.27
2017-10-29T21:03:29.973Z,19.40
2017-10-29T21:06:00.016Z,20.57
2017-10-29T21:08:27.444Z,17.00
2017-10-29T21:10:54.887Z,13.63
2017-10-29T21:13:23.087Z,11.07
2017-10-29T21:15:51.343Z,13.43
2017-10-29T21:18:20.831Z,15.90
2017-10-29T21:20:49.686Z,16.63
2017-10-29T21:23:19.439Z,18.27
2017-10-29T21:25:47.640Z,10.53
2017-10-29T21:28:15.062Z,16.23
2017-10-29T21:30:42.775Z,14.67
2017-10-29T21:33:12.458Z,22.40
2017-10-29T21:35:40.316Z,11.83
2017-10-29T21:38:08.513Z,12.67
2017-10-29T21:40:35.971Z,18.77
2017-10-29T21:43:03.407Z,13.37
2017-10-29T21:45:31.619Z,18.87
2017-10-29T21:47:59.470Z,17.87
2017-10-29T21:50:26.911Z,58.53
2017-10-29T21:52:54.341Z,20.23
2017-10-29T21:55:21.779Z,19.60
2017-10-29T21:57:49.203Z,18.77
2017-10-29T22:00:17.555Z,15.87
2017-10-29T22:02:44.990Z,16.80
2017-10-29T22:05:12.431Z,20.67
2017-10-29T22:07:40.008Z,17.87
2017-10-29T22:10:07.439Z,20.77
2017-10-29T22:12:34.867Z,24.90
2017-10-29T22:15:02.309Z,26.17
2017-10-29T22:17:30.194Z,22.37
2017-10-29T22:19:57.634Z,20.97
2017-10-29T22:22:25.467Z,13.80
2017-10-29T22:24:52.913Z,18.73
2017-10-29T22:27:20.339Z,18.50
2017-10-29T22:29:50.334Z,14.43
2017-10-29T22:32:17.772Z,17.23
2017-10-29T22:34:45.963Z,27.73
2017-10-29T22:37:13.398Z,21.53
2017-10-29T22:39:41.604Z,24.60
2017-10-29T22:42:09.040Z,19.07
2017-10-29T22:44:37.232Z,12.87
2017-10-29T22:47:04.670Z,17.30
2017-10-29T22:49:32.865Z,22.80
2017-10-29T22:52:00.296Z,16.33
2017-10-29T22:54:28.493Z,15.90
2017-10-29T22:56:55.927Z,17.07
2017-10-29T22:59:24.120Z,16.77
2017-10-29T23:01:51.555Z,15.40
2017-10-29T23:04:19.751Z,16.93
2017-10-29T23:06:47.193Z,19.87
2017-10-29T23:09:22.158Z,15.73
2017-10-29T23:11:49.594Z,22.10
2017-10-29T23:14:23.341Z,21.93
2017-10-29T23:16:50.772Z,23.03
2017-10-29T23:19:18.775Z,15.83
2017-10-29T23:21:46.227Z,20.70
2017-10-29T23:24:13.642Z,16.90
2017-10-29T23:26:41.527Z,20.83
2017-10-29T23:29:09.007Z,26.77
2017-10-29T23:31:36.426Z,24.43
2017-10-29T23:34:04.238Z,19.33
2017-10-29T23:36:32.438Z,20.73
2017-10-29T23:39:00.630Z,21.70
2017-10-29T23:41:28.109Z,19.33
2017-10-29T23:43:55.526Z,16.53
2017-10-29T23:46:23.727Z,19.80
2017-10-29T23:48:51.683Z,28.17
2017-10-29T23:51:20.345Z,22.80
2017-10-29T23:53:49.185Z,20.90
2017-10-29T23:56:16.622Z,20.80
2017-10-29T23:58:44.052Z,23.73
